sensor_id;sensor_type;location;lat;lon;timestamp;P1;durP1;ratioP1;P2;durP2;ratioP2
6223;SDS011;3145;42.726;23.342;2023-05-07T00:00:21;16.57;;;14.77;;
6223;SDS011;3145;42.726;23.342;2023-05-07T00:02:49;18.50;;;14.03;;
6223;SDS011;3145;42.726;23.342;2023-05-07T00:05:16;16.43;;;14.83;;
6223;SDS011;3145;42.726;23.342;2023-05-07T00:07:43;19.80;;;14.43;;
6223;SDS011;3145;42.726;23.342;2023-05-07T00:10:10;17.60;;;14.00;;
6223;SDS011;3145;42.726;23.342;2023-05-07T00:12:37;15.30;;;13.70;;
6223;SDS011;3145;42.726;23.342;2023-05-07T00:15:04;17.23;;;14.30;;
6223;SDS011;3145;42.726;23.342;2023-05-07T00:17:32;14.70;;;13.27;;
6223;SDS011;3145;42.726;23.342;2023-05-07T00:20:01;16.90;;;14.33;;
6223;SDS011;3145;42.726;23.342;2023-05-07T00:22:28;15.07;;;13.57;;
6223;SDS011;3145;42.726;23.342;2023-05-07T00:24:57;16.40;;;14.87;;
6223;SDS011;3145;42.726;23.342;2023-05-07T00:27:24;14.87;;;13.27;;
6223;SDS011;3145;42.726;23.342;2023-05-07T00:29:51;16.87;;;14.20;;
6223;SDS011;3145;42.726;23.342;2023-05-07T00:32:17;18.97;;;14.60;;
6223;SDS011;3145;42.726;23.342;2023-05-07T00:34:44;19.30;;;13.93;;
6223;SDS011;3145;42.726;23.342;2023-05-07T00:37:12;17.87;;;15.97;;
6223;SDS011;3145;42.726;23.342;2023-05-07T00:39:39;18.57;;;15.23;;
6223;SDS011;3145;42.726;23.342;2023-05-07T00:42:06;16.80;;;14.80;;
6223;SDS011;3145;42.726;23.342;2023-05-07T00:44:33;15.33;;;13.73;;
6223;SDS011;3145;42.726;23.342;2023-05-07T00:47:00;17.37;;;15.03;;
6223;SDS011;3145;42.726;23.342;2023-05-07T00:49:31;21.10;;;15.07;;
6223;SDS011;3145;42.726;23.342;2023-05-07T00:52:03;19.70;;;15.00;;
6223;SDS011;3145;42.726;23.342;2023-05-07T00:54:33;17.13;;;15.03;;
6223;SDS011;3145;42.726;23.342;2023-05-07T00:57:01;18.70;;;16.27;;
6223;SDS011;3145;42.726;23.342;2023-05-07T00:59:29;22.17;;;17.67;;
6223;SDS011;3145;42.726;23.342;2023-05-07T01:01:56;23.57;;;16.87;;
6223;SDS011;3145;42.726;23.342;2023-05-07T01:04:23;19.47;;;16.23;;
6223;SDS011;3145;42.726;23.342;2023-05-07T01:06:50;23.10;;;19.10;;
6223;SDS011;3145;42.726;23.342;2023-05-07T01:09:18;19.17;;;16.13;;
6223;SDS011;3145;42.726;23.342;2023-05-07T01:11:47;19.07;;;16.87;;
6223;SDS011;3145;42.726;23.342;2023-05-07T01:14:15;22.17;;;18.23;;
6223;SDS011;3145;42.726;23.342;2023-05-07T01:16:43;21.23;;;18.23;;
6223;SDS011;3145;42.726;23.342;2023-05-07T01:19:10;24.17;;;18.80;;
6223;SDS011;3145;42.726;23.342;2023-05-07T01:21:39;26.90;;;19.00;;
6223;SDS011;3145;42.726;23.342;2023-05-07T01:24:12;20.90;;;17.77;;
6223;SDS011;3145;42.726;23.342;2023-05-07T01:26:39;25.53;;;17.10;;
6223;SDS011;3145;42.726;23.342;2023-05-07T01:29:06;24.57;;;18.80;;
6223;SDS011;3145;42.726;23.342;2023-05-07T01:31:33;23.03;;;17.70;;
6223;SDS011;3145;42.726;23.342;2023-05-07T01:34:02;21.77;;;18.03;;
6223;SDS011;3145;42.726;23.342;2023-05-07T01:36:31;24.20;;;17.90;;
6223;SDS011;3145;42.726;23.342;2023-05-07T01:38:59;22.07;;;18.30;;
6223;SDS011;3145;42.726;23.342;2023-05-07T01:41:27;26.43;;;19.30;;
6223;SDS011;3145;42.726;23.342;2023-05-07T01:43:54;24.50;;;20.60;;
6223;SDS011;3145;42.726;23.342;2023-05-07T01:46:22;28.87;;;20.10;;
6223;SDS011;3145;42.726;23.342;2023-05-07T01:48:51;21.73;;;18.13;;
6223;SDS011;3145;42.726;23.342;2023-05-07T01:51:17;21.93;;;17.30;;
6223;SDS011;3145;42.726;23.342;2023-05-07T01:53:45;22.90;;;17.63;;
6223;SDS011;3145;42.726;23.342;2023-05-07T01:56:15;15.53;;;12.97;;
6223;SDS011;3145;42.726;23.342;2023-05-07T01:58:43;18.13;;;14.83;;
6223;SDS011;3145;42.726;23.342;2023-05-07T02:01:10;17.80;;;14.77;;
6223;SDS011;3145;42.726;23.342;2023-05-07T02:03:37;17.57;;;15.73;;
6223;SDS011;3145;42.726;23.342;2023-05-07T02:06:04;17.00;;;14.57;;
6223;SDS011;3145;42.726;23.342;2023-05-07T02:08:30;16.10;;;14.50;;
6223;SDS011;3145;42.726;23.342;2023-05-07T02:10:57;17.33;;;15.50;;
6223;SDS011;3145;42.726;23.342;2023-05-07T02:13:25;18.40;;;15.63;;
6223;SDS011;3145;42.726;23.342;2023-05-07T02:15:54;19.23;;;16.13;;
6223;SDS011;3145;42.726;23.342;2023-05-07T02:18:21;17.40;;;15.33;;
6223;SDS011;3145;42.726;23.342;2023-05-07T02:20:47;14.73;;;13.13;;
6223;SDS011;3145;42.726;23.342;2023-05-07T02:23:14;18.37;;;12.83;;
6223;SDS011;3145;42.726;23.342;2023-05-07T02:25:41;15.03;;;13.60;;
6223;SDS011;3145;42.726;23.342;2023-05-07T02:28:07;17.53;;;14.13;;
6223;SDS011;3145;42.726;23.342;2023-05-07T02:30:35;18.03;;;16.10;;
6223;SDS011;3145;42.726;23.342;2023-05-07T02:33:04;23.60;;;17.00;;
6223;SDS011;3145;42.726;23.342;2023-05-07T02:35:31;23.70;;;17.03;;
6223;SDS011;3145;42.726;23.342;2023-05-07T02:37:58;21.93;;;18.17;;
6223;SDS011;3145;42.726;23.342;2023-05-07T02:40:24;21.27;;;17.60;;
6223;SDS011;3145;42.726;23.342;2023-05-07T02:42:51;18.93;;;16.97;;
6223;SDS011;3145;42.726;23.342;2023-05-07T02:45:18;18.53;;;15.90;;
6223;SDS011;3145;42.726;23.342;2023-05-07T02:47:44;17.57;;;15.67;;
6223;SDS011;3145;42.726;23.342;2023-05-07T02:50:13;17.83;;;15.63;;
6223;SDS011;3145;42.726;23.342;2023-05-07T02:52:39;19.03;;;15.13;;
6223;SDS011;3145;42.726;23.342;2023-05-07T02:55:06;18.07;;;15.87;;
6223;SDS011;3145;42.726;23.342;2023-05-07T02:57:34;18.50;;;16.23;;
6223;SDS011;3145;42.726;23.342;2023-05-07T03:00:09;16.23;;;14.53;;
6223;SDS011;3145;42.726;23.342;2023-05-07T03:02:37;17.60;;;15.10;;
6223;SDS011;3145;42.726;23.342;2023-05-07T03:05:04;16.53;;;14.40;;
6223;SDS011;3145;42.726;23.342;2023-05-07T03:07:32;16.17;;;14.37;;
6223;SDS011;3145;42.726;23.342;2023-05-07T03:09:59;15.33;;;13.73;;
6223;SDS011;3145;42.726;23.342;2023-05-07T03:12:26;15.23;;;13.73;;
6223;SDS011;3145;42.726;23.342;2023-05-07T03:14:52;14.80;;;13.40;;
6223;SDS011;3145;42.726;23.342;2023-05-07T03:17:19;20.97;;;13.07;;
6223;SDS011;3145;42.726;23.342;2023-05-07T03:19:46;14.20;;;12.70;;
6223;SDS011;3145;42.726;23.342;2023-05-07T03:22:13;21.17;;;13.23;;
6223;SDS011;3145;42.726;23.342;2023-05-07T03:24:42;16.13;;;12.63;;
6223;SDS011;3145;42.726;23.342;2023-05-07T03:27:08;14.47;;;12.50;;
6223;SDS011;3145;42.726;23.342;2023-05-07T03:29:35;14.83;;;13.07;;
6223;SDS011;3145;42.726;23.342;2023-05-07T03:32:02;14.70;;;13.07;;
6223;SDS011;3145;42.726;23.342;2023-05-07T03:34:28;16.93;;;13.20;;
6223;SDS011;3145;42.726;23.342;2023-05-07T03:36:55;15.27;;;13.67;;
6223;SDS011;3145;42.726;23.342;2023-05-07T03:39:22;14.97;;;13.27;;
6223;SDS011;3145;42.726;23.342;2023-05-07T03:41:50;16.83;;;14.20;;
6223;SDS011;3145;42.726;23.342;2023-05-07T03:44:17;19.87;;;13.83;;
6223;SDS011;3145;42.726;23.342;2023-05-07T03:46:43;14.07;;;12.70;;
6223;SDS011;3145;42.726;23.342;2023-05-07T03:49:10;20.10;;;12.87;;
6223;SDS011;3145;42.726;23.342;2023-05-07T03:51:37;13.80;;;12.27;;
6223;SDS011;3145;42.726;23.342;2023-05-07T03:54:03;14.30;;;12.80;;
6223;SDS011;3145;42.726;23.342;2023-05-07T03:56:30;12.80;;;11.60;;
6223;SDS011;3145;42.726;23.342;2023-05-07T03:58:59;15.53;;;13.10;;
6223;SDS011;3145;42.726;23.342;2023-05-07T04:01:26;14.90;;;13.10;;
6223;SDS011;3145;42.726;23.342;2023-05-07T04:03:53;13.40;;;11.87;;
6223;SDS011;3145;42.726;23.342;2023-05-07T04:06:20;17.60;;;12.27;;
6223;SDS011;3145;42.726;23.342;2023-05-07T04:08:47;13.37;;;10.60;;
6223;SDS011;3145;42.726;23.342;2023-05-07T04:11:13;14.47;;;11.93;;
6223;SDS011;3145;42.726;23.342;2023-05-07T04:13:40;13.37;;;11.70;;
6223;SDS011;3145;42.726;23.342;2023-05-07T04:16:08;16.63;;;11.63;;
6223;SDS011;3145;42.726;23.342;2023-05-07T04:18:35;14.07;;;10.93;;
6223;SDS011;3145;42.726;23.342;2023-05-07T04:21:02;12.40;;;10.73;;
6223;SDS011;3145;42.726;23.342;2023-05-07T04:23:29;14.03;;;10.20;;
6223;SDS011;3145;42.726;23.342;2023-05-07T04:25:55;12.93;;;10.07;;
6223;SDS011;3145;42.726;23.342;2023-05-07T04:28:22;12.63;;;10.03;;
6223;SDS011;3145;42.726;23.342;2023-05-07T04:30:49;11.27;;;10.17;;
6223;SDS011;3145;42.726;23.342;2023-05-07T04:33:17;11.23;;;10.13;;
6223;SDS011;3145;42.726;23.342;2023-05-07T04:35:44;11.50;;;10.40;;
6223;SDS011;3145;42.726;23.342;2023-05-07T04:38:11;15.93;;;9.77;;
6223;SDS011;3145;42.726;23.342;2023-05-07T04:40:38;11.63;;;9.70;;
6223;SDS011;3145;42.726;23.342;2023-05-07T04:43:05;10.07;;;9.17;;
6223;SDS011;3145;42.726;23.342;2023-05-07T04:45:32;11.07;;;9.97;;
6223;SDS011;3145;42.726;23.342;2023-05-07T04:47:59;11.13;;;10.03;;
6223;SDS011;3145;42.726;23.342;2023-05-07T04:50:27;14.57;;;10.67;;
6223;SDS011;3145;42.726;23.342;2023-05-07T04:52:53;12.43;;;10.13;;
6223;SDS011;3145;42.726;23.342;2023-05-07T04:55:20;10.80;;;9.70;;
6223;SDS011;3145;42.726;23.342;2023-05-07T04:57:47;11.83;;;10.73;;
6223;SDS011;3145;42.726;23.342;2023-05-07T05:00:14;10.27;;;9.27;;
6223;SDS011;3145;42.726;23.342;2023-05-07T05:02:41;11.50;;;9.93;;
6223;SDS011;3145;42.726;23.342;2023-05-07T05:05:08;10.27;;;9.47;;
6223;SDS011;3145;42.726;23.342;2023-05-07T05:07:36;11.17;;;10.17;;
6223;SDS011;3145;42.726;23.342;2023-05-07T05:10:04;9.63;;;8.73;;
6223;SDS011;3145;42.726;23.342;2023-05-07T05:12:32;11.23;;;9.93;;
6223;SDS011;3145;42.726;23.342;2023-05-07T05:14:58;10.20;;;9.20;;
6223;SDS011;3145;42.726;23.342;2023-05-07T05:17:25;10.03;;;9.07;;
6223;SDS011;3145;42.726;23.342;2023-05-07T05:19:52;10.23;;;9.40;;
6223;SDS011;3145;42.726;23.342;2023-05-07T05:22:19;11.00;;;9.83;;
6223;SDS011;3145;42.726;23.342;2023-05-07T05:24:47;12.57;;;10.33;;
6223;SDS011;3145;42.726;23.342;2023-05-07T05:27:13;11.67;;;9.17;;
6223;SDS011;3145;42.726;23.342;2023-05-07T05:29:40;10.57;;;9.60;;
6223;SDS011;3145;42.726;23.342;2023-05-07T05:32:07;10.97;;;9.80;;
6223;SDS011;3145;42.726;23.342;2023-05-07T05:34:35;11.77;;;9.77;;
6223;SDS011;3145;42.726;23.342;2023-05-07T05:37:01;12.57;;;10.30;;
6223;SDS011;3145;42.726;23.342;2023-05-07T05:39:28;10.97;;;9.87;;
6223;SDS011;3145;42.726;23.342;2023-05-07T05:41:57;13.67;;;10.43;;
6223;SDS011;3145;42.726;23.342;2023-05-07T05:44:23;13.00;;;11.43;;
6223;SDS011;3145;42.726;23.342;2023-05-07T05:46:50;14.83;;;11.63;;
6223;SDS011;3145;42.726;23.342;2023-05-07T05:49:20;15.17;;;10.93;;
6223;SDS011;3145;42.726;23.342;2023-05-07T05:51:46;14.67;;;10.47;;
6223;SDS011;3145;42.726;23.342;2023-05-07T05:54:13;10.77;;;9.77;;
6223;SDS011;3145;42.726;23.342;2023-05-07T05:56:40;11.13;;;10.10;;
6223;SDS011;3145;42.726;23.342;2023-05-07T05:59:09;13.07;;;10.07;;
6223;SDS011;3145;42.726;23.342;2023-05-07T06:01:36;12.07;;;9.93;;
6223;SDS011;3145;42.726;23.342;2023-05-07T06:04:03;16.97;;;9.87;;
6223;SDS011;3145;42.726;23.342;2023-05-07T06:06:30;11.33;;;10.20;;
6223;SDS011;3145;42.726;23.342;2023-05-07T06:08:57;11.37;;;10.37;;
6223;SDS011;3145;42.726;23.342;2023-05-07T06:11:24;10.83;;;9.93;;
6223;SDS011;3145;42.726;23.342;2023-05-07T06:13:51;10.90;;;9.80;;
6223;SDS011;3145;42.726;23.342;2023-05-07T06:16:19;14.50;;;10.30;;
6223;SDS011;3145;42.726;23.342;2023-05-07T06:18:46;12.70;;;10.43;;
6223;SDS011;3145;42.726;23.342;2023-05-07T06:21:13;11.73;;;10.80;;
6223;SDS011;3145;42.726;23.342;2023-05-07T06:23:40;12.87;;;11.43;;
6223;SDS011;3145;42.726;23.342;2023-05-07T06:26:07;13.30;;;11.90;;
6223;SDS011;3145;42.726;23.342;2023-05-07T06:28:33;20.83;;;12.97;;
6223;SDS011;3145;42.726;23.342;2023-05-07T06:31:10;17.27;;;13.13;;
6223;SDS011;3145;42.726;23.342;2023-05-07T06:33:39;17.93;;;13.40;;
6223;SDS011;3145;42.726;23.342;2023-05-07T06:36:06;13.13;;;11.93;;
6223;SDS011;3145;42.726;23.342;2023-05-07T06:38:33;14.97;;;12.20;;
6223;SDS011;3145;42.726;23.342;2023-05-07T06:41:00;16.03;;;11.33;;
6223;SDS011;3145;42.726;23.342;2023-05-07T06:43:26;12.30;;;11.10;;
6223;SDS011;3145;42.726;23.342;2023-05-07T06:45:53;13.93;;;10.63;;
6223;SDS011;3145;42.726;23.342;2023-05-07T06:48:20;13.23;;;10.87;;
6223;SDS011;3145;42.726;23.342;2023-05-07T06:50:48;12.17;;;10.97;;
6223;SDS011;3145;42.726;23.342;2023-05-07T06:53:15;12.83;;;11.33;;
6223;SDS011;3145;42.726;23.342;2023-05-07T06:55:41;15.20;;;11.20;;
6223;SDS011;3145;42.726;23.342;2023-05-07T06:58:08;12.13;;;10.90;;
6223;SDS011;3145;42.726;23.342;2023-05-07T07:00:35;12.13;;;10.93;;
6223;SDS011;3145;42.726;23.342;2023-05-07T07:03:02;11.57;;;10.50;;
6223;SDS011;3145;42.726;23.342;2023-05-07T07:05:29;14.03;;;10.73;;
6223;SDS011;3145;42.726;23.342;2023-05-07T07:07:57;13.53;;;11.30;;
6223;SDS011;3145;42.726;23.342;2023-05-07T07:10:23;11.87;;;10.20;;
6223;SDS011;3145;42.726;23.342;2023-05-07T07:12:50;11.40;;;10.23;;
6223;SDS011;3145;42.726;23.342;2023-05-07T07:15:19;11.73;;;10.32;;
6223;SDS011;3145;42.726;23.342;2023-05-07T07:17:47;11.07;;;9.98;;
6223;SDS011;3145;42.726;23.342;2023-05-07T07:20:14;10.90;;;10.00;;
6223;SDS011;3145;42.726;23.342;2023-05-07T07:22:41;12.20;;;10.93;;
6223;SDS011;3145;42.726;23.342;2023-05-07T07:25:10;11.63;;;10.43;;
6223;SDS011;3145;42.726;23.342;2023-05-07T07:27:37;12.30;;;9.97;;
6223;SDS011;3145;42.726;23.342;2023-05-07T07:30:05;11.40;;;10.20;;
6223;SDS011;3145;42.726;23.342;2023-05-07T07:32:33;14.57;;;10.55;;
6223;SDS011;3145;42.726;23.342;2023-05-07T07:35:00;12.13;;;10.05;;
6223;SDS011;3145;42.726;23.342;2023-05-07T07:37:27;12.73;;;10.95;;
6223;SDS011;3145;42.726;23.342;2023-05-07T07:39:54;12.40;;;10.45;;
6223;SDS011;3145;42.726;23.342;2023-05-07T07:42:26;12.30;;;11.00;;
6223;SDS011;3145;42.726;23.342;2023-05-07T07:44:56;14.50;;;13.00;;
6223;SDS011;3145;42.726;23.342;2023-05-07T07:47:23;13.50;;;11.95;;
6223;SDS011;3145;42.726;23.342;2023-05-07T07:49:50;12.90;;;11.52;;
6223;SDS011;3145;42.726;23.342;2023-05-07T07:52:16;12.82;;;11.55;;
6223;SDS011;3145;42.726;23.342;2023-05-07T07:54:44;15.00;;;11.05;;
6223;SDS011;3145;42.726;23.342;2023-05-07T07:57:10;11.90;;;10.57;;
6223;SDS011;3145;42.726;23.342;2023-05-07T07:59:39;10.93;;;9.90;;
6223;SDS011;3145;42.726;23.342;2023-05-07T08:02:08;12.20;;;10.43;;
6223;SDS011;3145;42.726;23.342;2023-05-07T08:04:35;11.25;;;10.05;;
6223;SDS011;3145;42.726;23.342;2023-05-07T08:07:03;15.00;;;11.32;;
6223;SDS011;3145;42.726;23.342;2023-05-07T08:09:30;12.63;;;11.40;;
6223;SDS011;3145;42.726;23.342;2023-05-07T08:11:57;12.13;;;11.00;;
6223;SDS011;3145;42.726;23.342;2023-05-07T08:14:24;10.75;;;9.65;;
6223;SDS011;3145;42.726;23.342;2023-05-07T08:16:52;11.10;;;9.98;;
6223;SDS011;3145;42.726;23.342;2023-05-07T08:19:19;12.43;;;11.10;;
6223;SDS011;3145;42.726;23.342;2023-05-07T08:21:46;18.58;;;10.32;;
6223;SDS011;3145;42.726;23.342;2023-05-07T08:24:13;11.48;;;10.55;;
6223;SDS011;3145;42.726;23.342;2023-05-07T08:26:40;11.43;;;10.32;;
6223;SDS011;3145;42.726;23.342;2023-05-07T08:29:07;13.90;;;10.30;;
6223;SDS011;3145;42.726;23.342;2023-05-07T08:31:34;12.75;;;11.10;;
6223;SDS011;3145;42.726;23.342;2023-05-07T08:34:02;11.30;;;10.20;;
6223;SDS011;3145;42.726;23.342;2023-05-07T08:36:29;12.18;;;9.68;;
6223;SDS011;3145;42.726;23.342;2023-05-07T08:38:56;12.18;;;9.77;;
6223;SDS011;3145;42.726;23.342;2023-05-07T08:41:23;11.30;;;10.20;;
6223;SDS011;3145;42.726;23.342;2023-05-07T08:43:50;10.40;;;9.43;;
6223;SDS011;3145;42.726;23.342;2023-05-07T08:46:18;11.47;;;10.10;;
6223;SDS011;3145;42.726;23.342;2023-05-07T08:48:47;10.90;;;9.45;;
6223;SDS011;3145;42.726;23.342;2023-05-07T08:51:17;10.23;;;9.25;;
6223;SDS011;3145;42.726;23.342;2023-05-07T08:53:45;11.85;;;9.45;;
6223;SDS011;3145;42.726;23.342;2023-05-07T08:56:13;12.88;;;8.30;;
6223;SDS011;3145;42.726;23.342;2023-05-07T08:58:42;9.23;;;8.35;;
6223;SDS011;3145;42.726;23.342;2023-05-07T09:01:09;8.13;;;7.35;;
6223;SDS011;3145;42.726;23.342;2023-05-07T09:03:39;9.98;;;7.97;;
6223;SDS011;3145;42.726;23.342;2023-05-07T09:06:06;8.45;;;7.65;;
6223;SDS011;3145;42.726;23.342;2023-05-07T09:08:34;9.15;;;7.65;;
6223;SDS011;3145;42.726;23.342;2023-05-07T09:11:01;5.70;;;5.15;;
6223;SDS011;3145;42.726;23.342;2023-05-07T09:13:28;7.30;;;6.63;;
6223;SDS011;3145;42.726;23.342;2023-05-07T09:15:55;8.48;;;7.38;;
6223;SDS011;3145;42.726;23.342;2023-05-07T09:18:23;7.03;;;6.32;;
6223;SDS011;3145;42.726;23.342;2023-05-07T09:20:50;11.98;;;7.38;;
6223;SDS011;3145;42.726;23.342;2023-05-07T09:23:17;8.95;;;6.88;;
6223;SDS011;3145;42.726;23.342;2023-05-07T09:25:45;8.25;;;6.47;;
6223;SDS011;3145;42.726;23.342;2023-05-07T09:28:11;8.13;;;6.57;;
6223;SDS011;3145;42.726;23.342;2023-05-07T09:30:38;9.23;;;6.93;;
6223;SDS011;3145;42.726;23.342;2023-05-07T09:33:05;7.55;;;6.10;;
6223;SDS011;3145;42.726;23.342;2023-05-07T09:35:32;6.65;;;6.00;;
6223;SDS011;3145;42.726;23.342;2023-05-07T09:38:00;6.68;;;6.18;;
6223;SDS011;3145;42.726;23.342;2023-05-07T09:40:28;6.60;;;6.13;;
6223;SDS011;3145;42.726;23.342;2023-05-07T09:43:01;5.75;;;5.22;;
6223;SDS011;3145;42.726;23.342;2023-05-07T09:45:36;5.97;;;5.22;;
6223;SDS011;3145;42.726;23.342;2023-05-07T09:48:04;5.25;;;4.75;;
6223;SDS011;3145;42.726;23.342;2023-05-07T09:50:32;5.07;;;4.63;;
6223;SDS011;3145;42.726;23.342;2023-05-07T09:53:03;4.85;;;4.30;;
6223;SDS011;3145;42.726;23.342;2023-05-07T09:55:30;4.50;;;4.15;;
6223;SDS011;3145;42.726;23.342;2023-05-07T09:57:58;4.38;;;4.07;;
6223;SDS011;3145;42.726;23.342;2023-05-07T10:00:27;4.97;;;4.03;;
6223;SDS011;3145;42.726;23.342;2023-05-07T10:02:56;3.05;;;2.85;;
6223;SDS011;3145;42.726;23.342;2023-05-07T10:05:24;5.50;;;2.78;;
6223;SDS011;3145;42.726;23.342;2023-05-07T10:07:51;3.58;;;2.90;;
6223;SDS011;3145;42.726;23.342;2023-05-07T10:10:19;3.40;;;3.10;;
6223;SDS011;3145;42.726;23.342;2023-05-07T10:12:47;3.65;;;3.35;;
6223;SDS011;3145;42.726;23.342;2023-05-07T10:15:15;3.42;;;2.95;;
6223;SDS011;3145;42.726;23.342;2023-05-07T10:17:42;3.38;;;3.15;;
6223;SDS011;3145;42.726;23.342;2023-05-07T10:20:09;3.72;;;3.50;;
6223;SDS011;3145;42.726;23.342;2023-05-07T10:22:37;4.38;;;3.90;;
6223;SDS011;3145;42.726;23.342;2023-05-07T10:25:09;6.72;;;3.47;;
6223;SDS011;3145;42.726;23.342;2023-05-07T10:27:42;3.70;;;3.40;;
6223;SDS011;3145;42.726;23.342;2023-05-07T10:30:12;3.78;;;3.47;;
6223;SDS011;3145;42.726;23.342;2023-05-07T10:32:49;6.40;;;3.50;;
6223;SDS011;3145;42.726;23.342;2023-05-07T10:35:20;3.60;;;3.28;;
6223;SDS011;3145;42.726;23.342;2023-05-07T10:37:49;4.18;;;2.75;;
6223;SDS011;3145;42.726;23.342;2023-05-07T10:40:17;4.03;;;2.92;;
6223;SDS011;3145;42.726;23.342;2023-05-07T10:42:55;5.90;;;3.20;;
6223;SDS011;3145;42.726;23.342;2023-05-07T10:45:26;3.78;;;2.95;;
6223;SDS011;3145;42.726;23.342;2023-05-07T10:48:05;3.42;;;3.00;;
6223;SDS011;3145;42.726;23.342;2023-05-07T10:50:33;3.60;;;3.40;;
6223;SDS011;3145;42.726;23.342;2023-05-07T10:55:51;6.93;;;2.97;;
6223;SDS011;3145;42.726;23.342;2023-05-07T10:58:51;3.03;;;2.83;;
6223;SDS011;3145;42.726;23.342;2023-05-07T11:04:17;4.53;;;3.15;;
6223;SDS011;3145;42.726;23.342;2023-05-07T11:09:54;3.80;;;2.80;;
6223;SDS011;3145;42.726;23.342;2023-05-07T11:15:33;5.25;;;4.30;;
6223;SDS011;3145;42.726;23.342;2023-05-07T11:18:06;4.53;;;3.47;;
6223;SDS011;3145;42.726;23.342;2023-05-07T11:20:46;3.40;;;2.90;;
6223;SDS011;3145;42.726;23.342;2023-05-07T11:26:25;3.60;;;3.17;;
6223;SDS011;3145;42.726;23.342;2023-05-07T11:28:53;3.00;;;2.70;;
6223;SDS011;3145;42.726;23.342;2023-05-07T11:31:21;3.20;;;3.00;;
6223;SDS011;3145;42.726;23.342;2023-05-07T11:33:52;2.60;;;2.40;;
6223;SDS011;3145;42.726;23.342;2023-05-07T11:36:21;2.75;;;2.50;;
6223;SDS011;3145;42.726;23.342;2023-05-07T11:38:52;4.90;;;3.10;;
6223;SDS011;3145;42.726;23.342;2023-05-07T11:41:19;2.95;;;2.58;;
6223;SDS011;3145;42.726;23.342;2023-05-07T11:43:55;4.32;;;2.83;;
6223;SDS011;3145;42.726;23.342;2023-05-07T11:46:25;3.10;;;2.70;;
6223;SDS011;3145;42.726;23.342;2023-05-07T11:48:55;5.57;;;3.10;;
6223;SDS011;3145;42.726;23.342;2023-05-07T11:51:22;3.28;;;2.97;;
6223;SDS011;3145;42.726;23.342;2023-05-07T11:53:51;2.90;;;2.67;;
6223;SDS011;3145;42.726;23.342;2023-05-07T11:56:18;2.47;;;2.30;;
6223;SDS011;3145;42.726;23.342;2023-05-07T11:58:46;5.18;;;2.70;;
6223;SDS011;3145;42.726;23.342;2023-05-07T12:01:14;4.03;;;2.10;;
6223;SDS011;3145;42.726;23.342;2023-05-07T12:03:42;2.40;;;2.20;;
6223;SDS011;3145;42.726;23.342;2023-05-07T12:06:12;2.63;;;2.40;;
6223;SDS011;3145;42.726;23.342;2023-05-07T12:08:40;2.67;;;2.25;;
6223;SDS011;3145;42.726;23.342;2023-05-07T12:11:09;3.15;;;2.85;;
6223;SDS011;3145;42.726;23.342;2023-05-07T12:13:38;2.85;;;2.65;;
6223;SDS011;3145;42.726;23.342;2023-05-07T12:16:05;2.67;;;2.47;;
6223;SDS011;3145;42.726;23.342;2023-05-07T12:18:36;2.25;;;2.15;;
6223;SDS011;3145;42.726;23.342;2023-05-07T12:21:04;2.75;;;2.55;;
6223;SDS011;3145;42.726;23.342;2023-05-07T12:23:34;3.35;;;2.20;;
6223;SDS011;3145;42.726;23.342;2023-05-07T12:26:02;2.40;;;2.20;;
6223;SDS011;3145;42.726;23.342;2023-05-07T12:28:29;2.45;;;2.25;;
6223;SDS011;3145;42.726;23.342;2023-05-07T12:30:56;2.10;;;2.00;;
6223;SDS011;3145;42.726;23.342;2023-05-07T12:33:24;2.00;;;1.90;;
6223;SDS011;3145;42.726;23.342;2023-05-07T12:35:54;2.63;;;2.10;;
6223;SDS011;3145;42.726;23.342;2023-05-07T12:38:21;2.33;;;2.13;;
6223;SDS011;3145;42.726;23.342;2023-05-07T12:40:50;10.93;;;2.83;;
6223;SDS011;3145;42.726;23.342;2023-05-07T12:43:21;2.38;;;2.17;;
6223;SDS011;3145;42.726;23.342;2023-05-07T12:45:50;2.40;;;2.20;;
6223;SDS011;3145;42.726;23.342;2023-05-07T12:48:20;2.00;;;1.90;;
6223;SDS011;3145;42.726;23.342;2023-05-07T12:50:48;4.07;;;2.00;;
6223;SDS011;3145;42.726;23.342;2023-05-07T12:53:15;2.50;;;2.30;;
6223;SDS011;3145;42.726;23.342;2023-05-07T12:55:43;2.50;;;2.30;;
6223;SDS011;3145;42.726;23.342;2023-05-07T12:58:17;2.50;;;2.30;;
6223;SDS011;3145;42.726;23.342;2023-05-07T13:00:45;4.05;;;2.20;;
6223;SDS011;3145;42.726;23.342;2023-05-07T13:03:20;2.80;;;2.53;;
6223;SDS011;3145;42.726;23.342;2023-05-07T13:05:49;3.28;;;2.58;;
6223;SDS011;3145;42.726;23.342;2023-05-07T13:08:23;2.85;;;2.55;;
6223;SDS011;3145;42.726;23.342;2023-05-07T13:10:51;2.55;;;2.35;;
6223;SDS011;3145;42.726;23.342;2023-05-07T13:13:19;3.30;;;2.30;;
6223;SDS011;3145;42.726;23.342;2023-05-07T13:15:46;2.92;;;2.65;;
6223;SDS011;3145;42.726;23.342;2023-05-07T13:18:13;2.58;;;2.38;;
6223;SDS011;3145;42.726;23.342;2023-05-07T13:20:40;4.20;;;2.88;;
6223;SDS011;3145;42.726;23.342;2023-05-07T13:23:06;4.10;;;2.45;;
6223;SDS011;3145;42.726;23.342;2023-05-07T13:25:33;2.55;;;2.35;;
6223;SDS011;3145;42.726;23.342;2023-05-07T13:28:00;2.50;;;2.30;;
6223;SDS011;3145;42.726;23.342;2023-05-07T13:30:29;3.15;;;2.53;;
6223;SDS011;3145;42.726;23.342;2023-05-07T13:32:56;3.42;;;2.00;;
6223;SDS011;3145;42.726;23.342;2023-05-07T13:35:22;2.53;;;2.33;;
6223;SDS011;3145;42.726;23.342;2023-05-07T13:37:49;2.95;;;2.22;;
6223;SDS011;3145;42.726;23.342;2023-05-07T13:40:17;3.63;;;2.10;;
6223;SDS011;3145;42.726;23.342;2023-05-07T13:42:44;4.10;;;2.35;;
6223;SDS011;3145;42.726;23.342;2023-05-07T13:45:10;3.60;;;2.72;;
6223;SDS011;3145;42.726;23.342;2023-05-07T13:47:40;3.22;;;2.60;;
6223;SDS011;3145;42.726;23.342;2023-05-07T13:50:07;2.83;;;2.40;;
6223;SDS011;3145;42.726;23.342;2023-05-07T13:52:36;2.67;;;2.50;;
6223;SDS011;3145;42.726;23.342;2023-05-07T13:55:03;4.55;;;2.97;;
6223;SDS011;3145;42.726;23.342;2023-05-07T13:57:30;4.32;;;2.28;;
6223;SDS011;3145;42.726;23.342;2023-05-07T13:59:57;3.40;;;2.20;;
6223;SDS011;3145;42.726;23.342;2023-05-07T14:02:24;2.92;;;2.25;;
6223;SDS011;3145;42.726;23.342;2023-05-07T14:04:52;2.65;;;2.38;;
6223;SDS011;3145;42.726;23.342;2023-05-07T14:07:19;2.50;;;2.33;;
6223;SDS011;3145;42.726;23.342;2023-05-07T14:09:46;2.65;;;2.40;;
6223;SDS011;3145;42.726;23.342;2023-05-07T14:12:13;3.28;;;2.10;;
6223;SDS011;3145;42.726;23.342;2023-05-07T14:14:39;2.95;;;2.70;;
6223;SDS011;3145;42.726;23.342;2023-05-07T14:17:06;2.22;;;2.05;;
6223;SDS011;3145;42.726;23.342;2023-05-07T14:19:33;3.55;;;2.85;;
6223;SDS011;3145;42.726;23.342;2023-05-07T14:22:01;3.92;;;2.63;;
6223;SDS011;3145;42.726;23.342;2023-05-07T14:24:28;3.22;;;3.03;;
6223;SDS011;3145;42.726;23.342;2023-05-07T14:26:55;3.58;;;3.28;;
6223;SDS011;3145;42.726;23.342;2023-05-07T14:29:22;2.88;;;2.53;;
6223;SDS011;3145;42.726;23.342;2023-05-07T14:31:49;2.95;;;2.75;;
6223;SDS011;3145;42.726;23.342;2023-05-07T14:34:15;2.97;;;2.40;;
6223;SDS011;3145;42.726;23.342;2023-05-07T14:36:42;3.00;;;2.65;;
6223;SDS011;3145;42.726;23.342;2023-05-07T14:39:11;3.38;;;2.40;;
6223;SDS011;3145;42.726;23.342;2023-05-07T14:41:37;2.33;;;2.13;;
6223;SDS011;3145;42.726;23.342;2023-05-07T14:44:04;4.13;;;2.50;;
6223;SDS011;3145;42.726;23.342;2023-05-07T14:46:31;2.88;;;2.67;;
6223;SDS011;3145;42.726;23.342;2023-05-07T14:48:58;2.83;;;2.63;;
6223;SDS011;3145;42.726;23.342;2023-05-07T14:51:25;4.80;;;3.08;;
6223;SDS011;3145;42.726;23.342;2023-05-07T14:53:53;3.10;;;2.47;;
6223;SDS011;3145;42.726;23.342;2023-05-07T14:56:21;3.45;;;2.90;;
6223;SDS011;3145;42.726;23.342;2023-05-07T14:58:48;5.05;;;4.20;;
6223;SDS011;3145;42.726;23.342;2023-05-07T15:01:15;3.97;;;2.60;;
6223;SDS011;3145;42.726;23.342;2023-05-07T15:03:42;3.83;;;3.53;;